DRRP weather

La Tapoa Airport
La Tapoa, Tillabéri Region, Niger

Public forecast

Using degrees Celsius for public forecast. Weather courtesy of forecast.io.

METAR (pilot weather report)

Report is more than 6 hours old.

Closest report is Diori Hamani International Airport, 61.3 nm (113.5 km) NNW. Retrieved 2019/04/23 13:00 UTC (1 day ago):

DRRN 231300Z 23011KT 8000 FEW030 32/18 Q1011 NOSIG

TAF (pilot weather forecast)

Closest forecast is Diori Hamani International Airport, 61.3 nm (113.5 km) NNW. Retrieved 2019/04/24 18:39 UTC (3 hours ago):

TAF DRRN 241700Z 2418/2524 36010KT 8000 NSC PROB30 TEMPO 2418/2424 30018KT 4000 BLDU -TSRA FEW030 FEW033CB